Camas Valley, Oregon
Current Conditions -  °F | °C
As of 5:53 AM on Monday 20 Oct 2014 (Local Time) from KRBG Reporting Station
Moderate Rain Moderate Rain  
Wind Chill: 58°   Ceiling: 7000
Heat Index: 58°   Visibility: 3mi
Dew Point: 55°   Wind: 0mph
Humidity: 90%   Direction: NA
Pressure: 29.78"   Gusts: NA
Location:  43.03°N, 123.68°W
Report Text: KRBG 201253Z AUTO 00000KT 3SM RA BR OVC070 14/13 A2978 RMK AO2 RAB1154 SLP082 P0008 T01440128 $
Loading
Personal Weather Stations






























Interactive Weather Map
Tropical Storm Tracking
New forecast layout! Learn more

10-Day Weather Forecast

Advertisements
Track Severe Weather on mobile